sensor_id;sensor_type;location;lat;lon;timestamp;temperature;humidity
22249;DHT22;67538;52.180;5.646;2023-07-09T00:02:14;20.40;99.90
22249;DHT22;67538;52.180;5.646;2023-07-09T00:04:41;20.30;99.90
22249;DHT22;67538;52.180;5.646;2023-07-09T00:07:16;20.30;99.90
22249;DHT22;67538;52.180;5.646;2023-07-09T00:09:44;20.20;99.90
22249;DHT22;67538;52.180;5.646;2023-07-09T00:12:15;20.30;99.90
22249;DHT22;67538;52.180;5.646;2023-07-09T00:14:43;20.20;99.90
22249;DHT22;67538;52.180;5.646;2023-07-09T00:17:12;20.20;99.90
22249;DHT22;67538;52.180;5.646;2023-07-09T00:19:39;20.20;99.90
22249;DHT22;67538;52.180;5.646;2023-07-09T00:22:14;20.10;99.90
22249;DHT22;67538;52.180;5.646;2023-07-09T00:24:43;20.10;99.90
22249;DHT22;67538;52.180;5.646;2023-07-09T00:27:11;20.10;99.90
22249;DHT22;67538;52.180;5.646;2023-07-09T00:29:40;20.10;99.90
22249;DHT22;67538;52.180;5.646;2023-07-09T00:32:12;20.10;99.90
22249;DHT22;67538;52.180;5.646;2023-07-09T00:34:41;20.10;99.90
22249;DHT22;67538;52.180;5.646;2023-07-09T00:37:11;20.10;99.90
22249;DHT22;67538;52.180;5.646;2023-07-09T00:39:39;20.10;99.90
22249;DHT22;67538;52.180;5.646;2023-07-09T00:42:12;20.10;99.90
22249;DHT22;67538;52.180;5.646;2023-07-09T00:44:41;20.10;99.90
22249;DHT22;67538;52.180;5.646;2023-07-09T00:47:18;20.10;99.90
22249;DHT22;67538;52.180;5.646;2023-07-09T00:49:49;20.10;99.90
22249;DHT22;67538;52.180;5.646;2023-07-09T00:52:28;20.10;99.90
22249;DHT22;67538;52.180;5.646;2023-07-09T00:55:00;20.10;99.90
22249;DHT22;67538;52.180;5.646;2023-07-09T00:57:30;20.10;99.90
22249;DHT22;67538;52.180;5.646;2023-07-09T01:00:03;20.00;99.90
22249;DHT22;67538;52.180;5.646;2023-07-09T01:02:33;20.00;99.90
22249;DHT22;67538;52.180;5.646;2023-07-09T01:05:01;20.00;99.90
22249;DHT22;67538;52.180;5.646;2023-07-09T01:07:30;20.00;99.90
22249;DHT22;67538;52.180;5.646;2023-07-09T01:09:57;19.90;99.90
22249;DHT22;67538;52.180;5.646;2023-07-09T01:12:25;19.90;99.90
22249;DHT22;67538;52.180;5.646;2023-07-09T01:14:53;19.90;99.90
22249;DHT22;67538;52.180;5.646;2023-07-09T01:17:26;19.90;99.90
22249;DHT22;67538;52.180;5.646;2023-07-09T01:19:55;19.80;99.90
22249;DHT22;67538;52.180;5.646;2023-07-09T01:22:25;19.80;99.90
22249;DHT22;67538;52.180;5.646;2023-07-09T01:24:57;19.70;99.90
22249;DHT22;67538;52.180;5.646;2023-07-09T01:27:29;19.70;99.90
22249;DHT22;67538;52.180;5.646;2023-07-09T01:29:56;19.70;99.90
22249;DHT22;67538;52.180;5.646;2023-07-09T01:32:25;19.70;99.90
22249;DHT22;67538;52.180;5.646;2023-07-09T01:34:56;19.60;99.90
22249;DHT22;67538;52.180;5.646;2023-07-09T01:37:26;19.60;99.90
22249;DHT22;67538;52.180;5.646;2023-07-09T01:39:54;19.60;99.90
22249;DHT22;67538;52.180;5.646;2023-07-09T01:42:23;19.60;99.90
22249;DHT22;67538;52.180;5.646;2023-07-09T01:44:52;19.60;99.90
22249;DHT22;67538;52.180;5.646;2023-07-09T01:47:21;19.60;99.90
22249;DHT22;67538;52.180;5.646;2023-07-09T01:49:49;19.60;99.90
22249;DHT22;67538;52.180;5.646;2023-07-09T01:52:18;19.60;99.90
22249;DHT22;67538;52.180;5.646;2023-07-09T01:54:47;19.60;99.90
22249;DHT22;67538;52.180;5.646;2023-07-09T01:57:16;19.60;99.90
22249;DHT22;67538;52.180;5.646;2023-07-09T01:59:45;19.60;99.90
22249;DHT22;67538;52.180;5.646;2023-07-09T02:02:12;19.60;99.90
22249;DHT22;67538;52.180;5.646;2023-07-09T02:04:46;19.60;99.90
22249;DHT22;67538;52.180;5.646;2023-07-09T02:07:13;19.50;99.90
22249;DHT22;67538;52.180;5.646;2023-07-09T02:09:41;19.50;99.90
22249;DHT22;67538;52.180;5.646;2023-07-09T02:12:11;19.50;99.90
22249;DHT22;67538;52.180;5.646;2023-07-09T02:14:39;19.50;99.90
22249;DHT22;67538;52.180;5.646;2023-07-09T02:17:07;19.40;99.90
22249;DHT22;67538;52.180;5.646;2023-07-09T02:19:35;19.40;99.90
22249;DHT22;67538;52.180;5.646;2023-07-09T02:22:02;19.40;99.90
22249;DHT22;67538;52.180;5.646;2023-07-09T02:24:30;19.40;99.90
22249;DHT22;67538;52.180;5.646;2023-07-09T02:26:59;19.40;99.90
22249;DHT22;67538;52.180;5.646;2023-07-09T02:29:29;19.30;99.90
22249;DHT22;67538;52.180;5.646;2023-07-09T02:31:58;19.40;99.90
22249;DHT22;67538;52.180;5.646;2023-07-09T02:34:26;19.30;99.90
22249;DHT22;67538;52.180;5.646;2023-07-09T02:36:55;19.30;99.90
22249;DHT22;67538;52.180;5.646;2023-07-09T02:39:23;19.30;99.90
22249;DHT22;67538;52.180;5.646;2023-07-09T02:41:51;19.20;99.90
22249;DHT22;67538;52.180;5.646;2023-07-09T02:44:18;19.20;99.90
22249;DHT22;67538;52.180;5.646;2023-07-09T02:46:47;19.20;99.90
22249;DHT22;67538;52.180;5.646;2023-07-09T02:49:14;19.20;99.90
22249;DHT22;67538;52.180;5.646;2023-07-09T02:51:41;19.20;99.90
22249;DHT22;67538;52.180;5.646;2023-07-09T02:54:08;19.10;99.90
22249;DHT22;67538;52.180;5.646;2023-07-09T02:56:36;19.10;99.90
22249;DHT22;67538;52.180;5.646;2023-07-09T02:59:03;19.10;99.90
22249;DHT22;67538;52.180;5.646;2023-07-09T03:01:31;19.10;99.90
22249;DHT22;67538;52.180;5.646;2023-07-09T03:04:02;19.10;99.90
22249;DHT22;67538;52.180;5.646;2023-07-09T03:06:30;19.10;99.90
22249;DHT22;67538;52.180;5.646;2023-07-09T03:08:59;19.00;99.90
22249;DHT22;67538;52.180;5.646;2023-07-09T03:11:29;19.00;99.90
22249;DHT22;67538;52.180;5.646;2023-07-09T03:13:57;18.90;99.90
22249;DHT22;67538;52.180;5.646;2023-07-09T03:16:26;18.90;99.90
22249;DHT22;67538;52.180;5.646;2023-07-09T03:18:53;18.80;99.90
22249;DHT22;67538;52.180;5.646;2023-07-09T03:21:22;18.80;99.90
22249;DHT22;67538;52.180;5.646;2023-07-09T03:23:50;18.80;99.90
22249;DHT22;67538;52.180;5.646;2023-07-09T03:26:17;18.80;99.90
22249;DHT22;67538;52.180;5.646;2023-07-09T03:28:44;18.90;99.90
22249;DHT22;67538;52.180;5.646;2023-07-09T03:31:12;18.90;99.90
22249;DHT22;67538;52.180;5.646;2023-07-09T03:33:39;18.90;99.90
22249;DHT22;67538;52.180;5.646;2023-07-09T03:36:06;18.80;99.90
22249;DHT22;67538;52.180;5.646;2023-07-09T03:38:35;18.80;99.90
22249;DHT22;67538;52.180;5.646;2023-07-09T03:41:02;18.80;99.90
22249;DHT22;67538;52.180;5.646;2023-07-09T03:43:29;18.80;99.90
22249;DHT22;67538;52.180;5.646;2023-07-09T03:45:56;18.80;99.90
22249;DHT22;67538;52.180;5.646;2023-07-09T03:48:24;18.80;99.90
22249;DHT22;67538;52.180;5.646;2023-07-09T03:50:51;18.80;99.90
22249;DHT22;67538;52.180;5.646;2023-07-09T03:53:18;18.80;99.90
22249;DHT22;67538;52.180;5.646;2023-07-09T03:55:52;18.80;99.90
22249;DHT22;67538;52.180;5.646;2023-07-09T03:58:19;18.80;99.90
22249;DHT22;67538;52.180;5.646;2023-07-09T04:00:46;18.90;99.90
22249;DHT22;67538;52.180;5.646;2023-07-09T04:03:13;18.90;99.90
22249;DHT22;67538;52.180;5.646;2023-07-09T04:05:41;18.90;99.90
22249;DHT22;67538;52.180;5.646;2023-07-09T04:08:08;18.90;99.90
22249;DHT22;67538;52.180;5.646;2023-07-09T04:10:35;19.00;99.90
22249;DHT22;67538;52.180;5.646;2023-07-09T04:13:03;19.00;99.90
22249;DHT22;67538;52.180;5.646;2023-07-09T04:15:32;19.00;99.90
22249;DHT22;67538;52.180;5.646;2023-07-09T04:17:59;19.00;99.90
22249;DHT22;67538;52.180;5.646;2023-07-09T04:20:26;19.00;99.90
22249;DHT22;67538;52.180;5.646;2023-07-09T04:22:53;19.10;99.90
22249;DHT22;67538;52.180;5.646;2023-07-09T04:25:20;19.00;99.90
22249;DHT22;67538;52.180;5.646;2023-07-09T04:27:48;19.10;99.90
22249;DHT22;67538;52.180;5.646;2023-07-09T04:30:18;19.10;99.90
22249;DHT22;67538;52.180;5.646;2023-07-09T04:32:45;19.10;99.90
22249;DHT22;67538;52.180;5.646;2023-07-09T04:35:13;19.20;99.90
22249;DHT22;67538;52.180;5.646;2023-07-09T04:37:41;19.20;99.90
22249;DHT22;67538;52.180;5.646;2023-07-09T04:40:09;19.30;99.90
22249;DHT22;67538;52.180;5.646;2023-07-09T04:42:38;19.30;99.90
22249;DHT22;67538;52.180;5.646;2023-07-09T04:45:07;19.30;99.90
22249;DHT22;67538;52.180;5.646;2023-07-09T04:47:37;19.30;99.90
22249;DHT22;67538;52.180;5.646;2023-07-09T04:50:05;19.30;99.90
22249;DHT22;67538;52.180;5.646;2023-07-09T04:52:33;19.30;99.90
22249;DHT22;67538;52.180;5.646;2023-07-09T04:55:00;19.40;99.90
22249;DHT22;67538;52.180;5.646;2023-07-09T04:57:28;19.40;99.90
22249;DHT22;67538;52.180;5.646;2023-07-09T04:59:55;19.50;99.90
22249;DHT22;67538;52.180;5.646;2023-07-09T05:02:23;19.50;99.90
22249;DHT22;67538;52.180;5.646;2023-07-09T05:04:51;19.60;99.90
22249;DHT22;67538;52.180;5.646;2023-07-09T05:07:19;19.70;99.90
22249;DHT22;67538;52.180;5.646;2023-07-09T05:09:46;19.80;99.90
22249;DHT22;67538;52.180;5.646;2023-07-09T05:12:13;19.90;99.90
22249;DHT22;67538;52.180;5.646;2023-07-09T05:14:40;20.00;99.90
22249;DHT22;67538;52.180;5.646;2023-07-09T05:17:08;20.10;99.90
22249;DHT22;67538;52.180;5.646;2023-07-09T05:19:36;20.20;99.90
22249;DHT22;67538;52.180;5.646;2023-07-09T05:22:05;20.30;99.90
22249;DHT22;67538;52.180;5.646;2023-07-09T05:24:32;20.30;99.90
22249;DHT22;67538;52.180;5.646;2023-07-09T05:26:59;20.50;99.90
22249;DHT22;67538;52.180;5.646;2023-07-09T05:29:26;20.60;99.90
22249;DHT22;67538;52.180;5.646;2023-07-09T05:31:53;20.70;99.90
22249;DHT22;67538;52.180;5.646;2023-07-09T05:34:20;20.80;99.90
22249;DHT22;67538;52.180;5.646;2023-07-09T05:36:48;20.90;99.90
22249;DHT22;67538;52.180;5.646;2023-07-09T05:39:17;21.00;99.90
22249;DHT22;67538;52.180;5.646;2023-07-09T05:41:44;21.10;99.90
22249;DHT22;67538;52.180;5.646;2023-07-09T05:44:11;21.20;99.90
22249;DHT22;67538;52.180;5.646;2023-07-09T05:46:38;21.30;99.90
22249;DHT22;67538;52.180;5.646;2023-07-09T05:49:06;21.50;99.90
22249;DHT22;67538;52.180;5.646;2023-07-09T05:51:33;21.60;99.90
22249;DHT22;67538;52.180;5.646;2023-07-09T05:54:01;21.90;99.90
22249;DHT22;67538;52.180;5.646;2023-07-09T05:56:29;22.00;99.90
22249;DHT22;67538;52.180;5.646;2023-07-09T05:58:57;22.20;99.90
22249;DHT22;67538;52.180;5.646;2023-07-09T06:01:24;22.30;99.90
22249;DHT22;67538;52.180;5.646;2023-07-09T06:03:52;22.50;99.90
22249;DHT22;67538;52.180;5.646;2023-07-09T06:06:20;22.70;99.90
22249;DHT22;67538;52.180;5.646;2023-07-09T06:08:47;22.80;99.90
22249;DHT22;67538;52.180;5.646;2023-07-09T06:11:15;23.00;99.90
22249;DHT22;67538;52.180;5.646;2023-07-09T06:13:46;23.20;99.90
22249;DHT22;67538;52.180;5.646;2023-07-09T06:16:14;23.30;99.90
22249;DHT22;67538;52.180;5.646;2023-07-09T06:18:41;23.40;99.90
22249;DHT22;67538;52.180;5.646;2023-07-09T06:21:08;23.50;99.90
22249;DHT22;67538;52.180;5.646;2023-07-09T06:23:37;23.70;99.90
22249;DHT22;67538;52.180;5.646;2023-07-09T06:26:04;23.70;99.90
22249;DHT22;67538;52.180;5.646;2023-07-09T06:28:31;23.70;99.90
22249;DHT22;67538;52.180;5.646;2023-07-09T06:31:00;23.70;99.90
22249;DHT22;67538;52.180;5.646;2023-07-09T06:33:28;23.80;99.90
22249;DHT22;67538;52.180;5.646;2023-07-09T06:35:57;23.90;99.90
22249;DHT22;67538;52.180;5.646;2023-07-09T06:38:25;24.00;99.90
22249;DHT22;67538;52.180;5.646;2023-07-09T06:40:52;24.10;99.90
22249;DHT22;67538;52.180;5.646;2023-07-09T06:43:19;24.20;99.90
22249;DHT22;67538;52.180;5.646;2023-07-09T06:45:55;24.40;99.90
22249;DHT22;67538;52.180;5.646;2023-07-09T06:48:25;24.60;99.90
22249;DHT22;67538;52.180;5.646;2023-07-09T06:50:54;24.90;99.90
22249;DHT22;67538;52.180;5.646;2023-07-09T06:53:22;25.70;99.90
22249;DHT22;67538;52.180;5.646;2023-07-09T06:55:49;26.80;99.90
22249;DHT22;67538;52.180;5.646;2023-07-09T06:58:19;27.30;99.90
22249;DHT22;67538;52.180;5.646;2023-07-09T07:00:47;27.20;99.90
22249;DHT22;67538;52.180;5.646;2023-07-09T07:03:15;26.80;99.90
22249;DHT22;67538;52.180;5.646;2023-07-09T07:05:45;26.50;99.90
22249;DHT22;67538;52.180;5.646;2023-07-09T07:08:15;26.40;99.90
22249;DHT22;67538;52.180;5.646;2023-07-09T07:10:43;26.30;99.90
22249;DHT22;67538;52.180;5.646;2023-07-09T07:13:11;26.40;99.90
22249;DHT22;67538;52.180;5.646;2023-07-09T07:15:38;26.60;99.90
22249;DHT22;67538;52.180;5.646;2023-07-09T07:18:06;26.60;99.90
22249;DHT22;67538;52.180;5.646;2023-07-09T07:20:34;26.70;99.90
22249;DHT22;67538;52.180;5.646;2023-07-09T07:23:02;26.70;99.90
22249;DHT22;67538;52.180;5.646;2023-07-09T07:25:31;26.90;99.90
22249;DHT22;67538;52.180;5.646;2023-07-09T07:27:58;27.10;99.90
22249;DHT22;67538;52.180;5.646;2023-07-09T07:30:25;27.00;99.90
22249;DHT22;67538;52.180;5.646;2023-07-09T07:32:53;27.10;99.90
22249;DHT22;67538;52.180;5.646;2023-07-09T07:35:20;27.20;99.90
22249;DHT22;67538;52.180;5.646;2023-07-09T07:37:47;27.30;99.90
22249;DHT22;67538;52.180;5.646;2023-07-09T07:40:16;27.50;99.90
22249;DHT22;67538;52.180;5.646;2023-07-09T07:42:43;27.60;99.90
22249;DHT22;67538;52.180;5.646;2023-07-09T07:45:10;27.80;99.90
22249;DHT22;67538;52.180;5.646;2023-07-09T07:47:37;28.00;99.90
22249;DHT22;67538;52.180;5.646;2023-07-09T07:50:05;28.10;99.90
22249;DHT22;67538;52.180;5.646;2023-07-09T07:52:33;28.20;99.90
22249;DHT22;67538;52.180;5.646;2023-07-09T07:55:03;28.30;99.90
22249;DHT22;67538;52.180;5.646;2023-07-09T07:57:32;28.50;99.90
22249;DHT22;67538;52.180;5.646;2023-07-09T08:00:00;28.70;99.90
22249;DHT22;67538;52.180;5.646;2023-07-09T08:02:27;28.70;99.90
22249;DHT22;67538;52.180;5.646;2023-07-09T08:04:54;28.80;99.90
22249;DHT22;67538;52.180;5.646;2023-07-09T08:07:22;28.90;99.90
22249;DHT22;67538;52.180;5.646;2023-07-09T08:09:49;29.00;99.90
22249;DHT22;67538;52.180;5.646;2023-07-09T08:12:16;29.20;99.90
22249;DHT22;67538;52.180;5.646;2023-07-09T08:14:45;29.30;99.90
22249;DHT22;67538;52.180;5.646;2023-07-09T08:17:13;29.60;99.90
22249;DHT22;67538;52.180;5.646;2023-07-09T08:19:46;29.80;99.90
22249;DHT22;67538;52.180;5.646;2023-07-09T08:22:14;29.90;99.90
22249;DHT22;67538;52.180;5.646;2023-07-09T08:24:41;30.00;99.90
22249;DHT22;67538;52.180;5.646;2023-07-09T08:27:09;29.90;99.90
22249;DHT22;67538;52.180;5.646;2023-07-09T08:29:36;30.00;99.90
22249;DHT22;67538;52.180;5.646;2023-07-09T08:32:07;30.20;99.90
22249;DHT22;67538;52.180;5.646;2023-07-09T08:34:35;30.20;99.90
22249;DHT22;67538;52.180;5.646;2023-07-09T08:37:02;30.40;99.90
22249;DHT22;67538;52.180;5.646;2023-07-09T08:39:30;30.50;99.90
22249;DHT22;67538;52.180;5.646;2023-07-09T08:42:00;30.60;99.90
22249;DHT22;67538;52.180;5.646;2023-07-09T08:44:55;30.50;99.90
22249;DHT22;67538;52.180;5.646;2023-07-09T08:47:33;30.40;99.90
22249;DHT22;67538;52.180;5.646;2023-07-09T08:50:09;30.40;99.90
22249;DHT22;67538;52.180;5.646;2023-07-09T08:52:39;30.30;99.90
22249;DHT22;67538;52.180;5.646;2023-07-09T08:55:09;30.40;99.90
22249;DHT22;67538;52.180;5.646;2023-07-09T08:57:40;30.50;99.90
22249;DHT22;67538;52.180;5.646;2023-07-09T09:00:14;30.40;99.90
22249;DHT22;67538;52.180;5.646;2023-07-09T09:02:48;30.40;99.90
22249;DHT22;67538;52.180;5.646;2023-07-09T09:05:18;30.30;99.90
22249;DHT22;67538;52.180;5.646;2023-07-09T09:07:49;30.30;99.90
22249;DHT22;67538;52.180;5.646;2023-07-09T09:10:26;30.40;99.90
22249;DHT22;67538;52.180;5.646;2023-07-09T09:13:05;30.50;99.90
22249;DHT22;67538;52.180;5.646;2023-07-09T09:15:33;30.70;99.90
22249;DHT22;67538;52.180;5.646;2023-07-09T09:18:20;30.70;99.90
22249;DHT22;67538;52.180;5.646;2023-07-09T09:20:53;30.80;99.90
22249;DHT22;67538;52.180;5.646;2023-07-09T09:23:22;31.00;99.90
22249;DHT22;67538;52.180;5.646;2023-07-09T09:25:54;31.00;99.90
22249;DHT22;67538;52.180;5.646;2023-07-09T09:28:23;30.90;99.90
22249;DHT22;67538;52.180;5.646;2023-07-09T09:30:52;31.00;99.90
22249;DHT22;67538;52.180;5.646;2023-07-09T09:33:20;31.00;99.90
22249;DHT22;67538;52.180;5.646;2023-07-09T09:35:47;30.90;99.90
22249;DHT22;67538;52.180;5.646;2023-07-09T09:38:18;31.00;99.90
22249;DHT22;67538;52.180;5.646;2023-07-09T09:40:46;31.00;99.90
22249;DHT22;67538;52.180;5.646;2023-07-09T09:43:15;31.10;99.90
22249;DHT22;67538;52.180;5.646;2023-07-09T09:45:46;31.10;99.90
22249;DHT22;67538;52.180;5.646;2023-07-09T09:48:17;31.20;99.90
22249;DHT22;67538;52.180;5.646;2023-07-09T09:50:47;31.20;99.90
22249;DHT22;67538;52.180;5.646;2023-07-09T09:53:20;31.20;99.90
22249;DHT22;67538;52.180;5.646;2023-07-09T09:55:48;31.30;99.90
22249;DHT22;67538;52.180;5.646;2023-07-09T09:58:17;31.40;99.90
22249;DHT22;67538;52.180;5.646;2023-07-09T10:00:56;31.30;99.90
22249;DHT22;67538;52.180;5.646;2023-07-09T10:03:33;31.20;99.90
22249;DHT22;67538;52.180;5.646;2023-07-09T10:06:05;31.10;99.90
22249;DHT22;67538;52.180;5.646;2023-07-09T10:08:40;31.10;99.90
22249;DHT22;67538;52.180;5.646;2023-07-09T10:11:18;31.20;99.90
22249;DHT22;67538;52.180;5.646;2023-07-09T10:13:46;31.30;99.90
22249;DHT22;67538;52.180;5.646;2023-07-09T10:16:21;31.40;99.90
22249;DHT22;67538;52.180;5.646;2023-07-09T10:19:03;31.60;99.90
22249;DHT22;67538;52.180;5.646;2023-07-09T10:21:40;31.60;99.90
22249;DHT22;67538;52.180;5.646;2023-07-09T10:24:25;31.70;99.90
22249;DHT22;67538;52.180;5.646;2023-07-09T10:27:03;31.70;99.90
22249;DHT22;67538;52.180;5.646;2023-07-09T10:29:43;31.70;99.90
22249;DHT22;67538;52.180;5.646;2023-07-09T10:32:19;31.70;99.90
22249;DHT22;67538;52.180;5.646;2023-07-09T10:34:56;31.80;99.90
22249;DHT22;67538;52.180;5.646;2023-07-09T10:37:43;31.90;99.90
22249;DHT22;67538;52.180;5.646;2023-07-09T10:40:18;32.00;99.90
22249;DHT22;67538;52.180;5.646;2023-07-09T10:42:50;32.00;99.90
22249;DHT22;67538;52.180;5.646;2023-07-09T10:45:22;32.10;99.90
22249;DHT22;67538;52.180;5.646;2023-07-09T10:47:55;32.10;99.90
22249;DHT22;67538;52.180;5.646;2023-07-09T10:50:29;32.10;99.90
22249;DHT22;67538;52.180;5.646;2023-07-09T10:53:02;32.30;99.90
22249;DHT22;67538;52.180;5.646;2023-07-09T10:55:35;32.30;99.90
22249;DHT22;67538;52.180;5.646;2023-07-09T10:58:19;32.30;99.90
22249;DHT22;67538;52.180;5.646;2023-07-09T11:00:48;32.40;99.90
22249;DHT22;67538;52.180;5.646;2023-07-09T11:03:18;32.30;99.90
22249;DHT22;67538;52.180;5.646;2023-07-09T11:05:46;32.30;99.90
22249;DHT22;67538;52.180;5.646;2023-07-09T11:08:18;32.20;99.90
22249;DHT22;67538;52.180;5.646;2023-07-09T11:10:51;32.10;99.90
22249;DHT22;67538;52.180;5.646;2023-07-09T11:13:27;32.10;99.90
22249;DHT22;67538;52.180;5.646;2023-07-09T11:15:59;32.00;99.90
22249;DHT22;67538;52.180;5.646;2023-07-09T11:18:31;32.00;99.90
22249;DHT22;67538;52.180;5.646;2023-07-09T11:21:01;32.20;99.90
22249;DHT22;67538;52.180;5.646;2023-07-09T11:23:44;32.20;99.90
22249;DHT22;67538;52.180;5.646;2023-07-09T11:26:13;32.30;99.90
22249;DHT22;67538;52.180;5.646;2023-07-09T11:28:46;32.40;99.90
22249;DHT22;67538;52.180;5.646;2023-07-09T11:31:22;32.50;99.90
22249;DHT22;67538;52.180;5.646;2023-07-09T11:34:00;32.50;99.90
22249;DHT22;67538;52.180;5.646;2023-07-09T11:36:29;32.50;99.90
22249;DHT22;67538;52.180;5.646;2023-07-09T11:38:59;32.40;99.90
22249;DHT22;67538;52.180;5.646;2023-07-09T11:41:37;32.50;99.90
22249;DHT22;67538;52.180;5.646;2023-07-09T11:44:12;32.50;99.90
22249;DHT22;67538;52.180;5.646;2023-07-09T11:46:52;32.50;99.90
22249;DHT22;67538;52.180;5.646;2023-07-09T11:49:23;32.30;99.90
22249;DHT22;67538;52.180;5.646;2023-07-09T11:51:55;32.10;99.90
22249;DHT22;67538;52.180;5.646;2023-07-09T11:54:26;31.90;99.90
22249;DHT22;67538;52.180;5.646;2023-07-09T11:56:54;31.80;99.90
22249;DHT22;67538;52.180;5.646;2023-07-09T11:59:22;31.90;99.90
22249;DHT22;67538;52.180;5.646;2023-07-09T12:01:49;31.90;99.90
22249;DHT22;67538;52.180;5.646;2023-07-09T12:04:21;31.90;99.90
22249;DHT22;67538;52.180;5.646;2023-07-09T12:06:49;31.90;99.90
22249;DHT22;67538;52.180;5.646;2023-07-09T12:09:21;31.80;99.90
22249;DHT22;67538;52.180;5.646;2023-07-09T12:11:50;31.60;99.90
22249;DHT22;67538;52.180;5.646;2023-07-09T12:14:19;31.50;99.90
22249;DHT22;67538;52.180;5.646;2023-07-09T12:16:50;31.30;99.90
22249;DHT22;67538;52.180;5.646;2023-07-09T12:19:19;31.10;99.90
22249;DHT22;67538;52.180;5.646;2023-07-09T12:21:49;31.00;99.90
22249;DHT22;67538;52.180;5.646;2023-07-09T12:24:22;30.90;99.90
22249;DHT22;67538;52.180;5.646;2023-07-09T12:26:52;30.90;99.90
22249;DHT22;67538;52.180;5.646;2023-07-09T12:29:19;30.80;99.90
22249;DHT22;67538;52.180;5.646;2023-07-09T12:31:46;30.70;99.90
22249;DHT22;67538;52.180;5.646;2023-07-09T12:34:14;30.70;99.90
22249;DHT22;67538;52.180;5.646;2023-07-09T12:36:45;30.70;99.90
22249;DHT22;67538;52.180;5.646;2023-07-09T12:39:16;30.70;99.90
22249;DHT22;67538;52.180;5.646;2023-07-09T12:41:44;30.70;99.90
22249;DHT22;67538;52.180;5.646;2023-07-09T12:44:18;30.80;99.90
22249;DHT22;67538;52.180;5.646;2023-07-09T12:46:46;30.90;99.90
22249;DHT22;67538;52.180;5.646;2023-07-09T12:49:25;31.00;99.90
22249;DHT22;67538;52.180;5.646;2023-07-09T12:51:54;31.10;99.90
22249;DHT22;67538;52.180;5.646;2023-07-09T12:54:21;31.10;99.90
22249;DHT22;67538;52.180;5.646;2023-07-09T12:56:51;31.00;99.90
22249;DHT22;67538;52.180;5.646;2023-07-09T12:59:21;31.00;99.90
22249;DHT22;67538;52.180;5.646;2023-07-09T13:01:50;31.00;99.90
22249;DHT22;67538;52.180;5.646;2023-07-09T13:04:18;30.90;99.90
22249;DHT22;67538;52.180;5.646;2023-07-09T13:06:45;31.00;99.90
22249;DHT22;67538;52.180;5.646;2023-07-09T13:09:18;30.90;99.90
22249;DHT22;67538;52.180;5.646;2023-07-09T13:11:48;30.90;99.90
22249;DHT22;67538;52.180;5.646;2023-07-09T13:14:20;30.90;99.90
22249;DHT22;67538;52.180;5.646;2023-07-09T13:16:48;30.90;99.90
22249;DHT22;67538;52.180;5.646;2023-07-09T13:19:16;30.90;99.90
22249;DHT22;67538;52.180;5.646;2023-07-09T13:21:43;30.60;99.90
22249;DHT22;67538;52.180;5.646;2023-07-09T13:24:23;30.50;99.90
22249;DHT22;67538;52.180;5.646;2023-07-09T13:26:50;30.30;99.90
22249;DHT22;67538;52.180;5.646;2023-07-09T13:29:27;30.10;99.90
22249;DHT22;67538;52.180;5.646;2023-07-09T13:31:55;29.80;99.90
22249;DHT22;67538;52.180;5.646;2023-07-09T13:34:25;29.50;99.90
22249;DHT22;67538;52.180;5.646;2023-07-09T13:36:54;29.30;99.90
22249;DHT22;67538;52.180;5.646;2023-07-09T13:39:22;29.10;99.90
22249;DHT22;67538;52.180;5.646;2023-07-09T13:41:51;29.00;99.90
22249;DHT22;67538;52.180;5.646;2023-07-09T13:44:21;28.90;99.90
22249;DHT22;67538;52.180;5.646;2023-07-09T13:46:52;28.70;99.90
22249;DHT22;67538;52.180;5.646;2023-07-09T13:49:21;28.50;99.90
22249;DHT22;67538;52.180;5.646;2023-07-09T13:51:51;28.40;99.90
22249;DHT22;67538;52.180;5.646;2023-07-09T13:54:21;28.20;99.90
22249;DHT22;67538;52.180;5.646;2023-07-09T13:56:50;28.10;99.90
22249;DHT22;67538;52.180;5.646;2023-07-09T13:59:20;28.00;99.90
22249;DHT22;67538;52.180;5.646;2023-07-09T14:01:48;27.90;99.90
22249;DHT22;67538;52.180;5.646;2023-07-09T14:04:19;27.70;99.90
22249;DHT22;67538;52.180;5.646;2023-07-09T14:06:47;27.60;99.90
22249;DHT22;67538;52.180;5.646;2023-07-09T14:09:14;27.40;99.90
22249;DHT22;67538;52.180;5.646;2023-07-09T14:11:44;27.20;99.90
22249;DHT22;67538;52.180;5.646;2023-07-09T14:14:16;27.10;99.90
22249;DHT22;67538;52.180;5.646;2023-07-09T14:16:44;26.90;99.90
22249;DHT22;67538;52.180;5.646;2023-07-09T14:19:13;26.70;99.90
22249;DHT22;67538;52.180;5.646;2023-07-09T14:21:42;26.60;99.90
22249;DHT22;67538;52.180;5.646;2023-07-09T14:24:19;26.40;99.90
22249;DHT22;67538;52.180;5.646;2023-07-09T14:26:47;26.30;99.90
22249;DHT22;67538;52.180;5.646;2023-07-09T14:29:14;26.30;99.90
22249;DHT22;67538;52.180;5.646;2023-07-09T14:31:42;26.20;99.90
22249;DHT22;67538;52.180;5.646;2023-07-09T14:34:20;26.00;99.90
22249;DHT22;67538;52.180;5.646;2023-07-09T14:36:51;25.90;99.90
22249;DHT22;67538;52.180;5.646;2023-07-09T14:39:18;25.80;99.90
22249;DHT22;67538;52.180;5.646;2023-07-09T14:41:46;25.60;99.90
22249;DHT22;67538;52.180;5.646;2023-07-09T14:44:22;25.40;99.90
22249;DHT22;67538;52.180;5.646;2023-07-09T14:46:49;25.20;99.90
22249;DHT22;67538;52.180;5.646;2023-07-09T14:49:16;25.00;99.90
22249;DHT22;67538;52.180;5.646;2023-07-09T14:51:44;24.90;99.90
22249;DHT22;67538;52.180;5.646;2023-07-09T14:54:18;24.70;99.90
22249;DHT22;67538;52.180;5.646;2023-07-09T14:56:47;24.50;99.90
22249;DHT22;67538;52.180;5.646;2023-07-09T14:59:14;24.40;99.90
22249;DHT22;67538;52.180;5.646;2023-07-09T15:01:41;24.30;99.90
22249;DHT22;67538;52.180;5.646;2023-07-09T15:04:27;24.20;99.90
22249;DHT22;67538;52.180;5.646;2023-07-09T15:06:55;23.80;99.90
22249;DHT22;67538;52.180;5.646;2023-07-09T15:09:25;23.50;99.90
22249;DHT22;67538;52.180;5.646;2023-07-09T15:11:58;23.00;99.90
22249;DHT22;67538;52.180;5.646;2023-07-09T15:14:26;22.60;99.90
22249;DHT22;67538;52.180;5.646;2023-07-09T15:16:54;22.30;99.90
22249;DHT22;67538;52.180;5.646;2023-07-09T15:19:22;21.90;99.90
22249;DHT22;67538;52.180;5.646;2023-07-09T15:21:50;21.70;99.90
22249;DHT22;67538;52.180;5.646;2023-07-09T15:24:21;21.60;99.90
22249;DHT22;67538;52.180;5.646;2023-07-09T15:26:52;21.50;99.90
22249;DHT22;67538;52.180;5.646;2023-07-09T15:29:20;21.60;99.90
22249;DHT22;67538;52.180;5.646;2023-07-09T15:31:48;21.60;99.90
22249;DHT22;67538;52.180;5.646;2023-07-09T15:34:15;21.60;99.90
22249;DHT22;67538;52.180;5.646;2023-07-09T15:36:44;21.60;99.90
22249;DHT22;67538;52.180;5.646;2023-07-09T15:39:12;21.60;99.90
22249;DHT22;67538;52.180;5.646;2023-07-09T15:41:39;21.70;99.90
22249;DHT22;67538;52.180;5.646;2023-07-09T15:44:10;21.80;99.90
22249;DHT22;67538;52.180;5.646;2023-07-09T15:46:39;21.80;99.90